sensor_id;sensor_type;location;lat;lon;timestamp;P1;durP1;ratioP1;P2;durP2;ratioP2
38264;SDS011;24062;47.480;8.768;2022-08-30T00:00:29;9.07;;;8.17;;
38264;SDS011;24062;47.480;8.768;2022-08-30T00:03:13;8.57;;;7.30;;
38264;SDS011;24062;47.480;8.768;2022-08-30T00:05:40;12.33;;;6.80;;
38264;SDS011;24062;47.480;8.768;2022-08-30T00:08:08;7.57;;;6.80;;
38264;SDS011;24062;47.480;8.768;2022-08-30T00:10:36;7.17;;;6.57;;
38264;SDS011;24062;47.480;8.768;2022-08-30T00:13:06;10.10;;;7.17;;
38264;SDS011;24062;47.480;8.768;2022-08-30T00:15:37;7.37;;;6.50;;
38264;SDS011;24062;47.480;8.768;2022-08-30T00:18:05;7.93;;;7.23;;
38264;SDS011;24062;47.480;8.768;2022-08-30T00:20:33;7.40;;;6.80;;
38264;SDS011;24062;47.480;8.768;2022-08-30T00:23:01;8.07;;;7.33;;
38264;SDS011;24062;47.480;8.768;2022-08-30T00:25:29;13.83;;;7.37;;
38264;SDS011;24062;47.480;8.768;2022-08-30T00:27:56;8.30;;;7.60;;
38264;SDS011;24062;47.480;8.768;2022-08-30T00:30:23;8.13;;;7.43;;
38264;SDS011;24062;47.480;8.768;2022-08-30T00:32:51;11.13;;;7.80;;
38264;SDS011;24062;47.480;8.768;2022-08-30T00:35:19;7.33;;;6.73;;
38264;SDS011;24062;47.480;8.768;2022-08-30T00:37:46;9.23;;;7.03;;
38264;SDS011;24062;47.480;8.768;2022-08-30T00:40:15;7.60;;;7.00;;
38264;SDS011;24062;47.480;8.768;2022-08-30T00:42:44;7.80;;;6.97;;
38264;SDS011;24062;47.480;8.768;2022-08-30T00:45:12;8.83;;;8.13;;
38264;SDS011;24062;47.480;8.768;2022-08-30T00:47:41;8.20;;;7.50;;
38264;SDS011;24062;47.480;8.768;2022-08-30T00:50:10;11.17;;;8.97;;
38264;SDS011;24062;47.480;8.768;2022-08-30T00:52:40;10.73;;;9.73;;
38264;SDS011;24062;47.480;8.768;2022-08-30T00:55:09;10.77;;;8.97;;
38264;SDS011;24062;47.480;8.768;2022-08-30T00:57:38;10.63;;;9.53;;
38264;SDS011;24062;47.480;8.768;2022-08-30T01:00:07;12.27;;;9.63;;
38264;SDS011;24062;47.480;8.768;2022-08-30T01:02:34;9.60;;;8.63;;
38264;SDS011;24062;47.480;8.768;2022-08-30T01:05:02;10.27;;;9.37;;
38264;SDS011;24062;47.480;8.768;2022-08-30T01:07:36;9.57;;;8.67;;
38264;SDS011;24062;47.480;8.768;2022-08-30T01:10:04;10.07;;;8.67;;
38264;SDS011;24062;47.480;8.768;2022-08-30T01:12:34;9.73;;;8.67;;
38264;SDS011;24062;47.480;8.768;2022-08-30T01:15:01;9.97;;;8.10;;
38264;SDS011;24062;47.480;8.768;2022-08-30T01:17:28;8.67;;;7.53;;
38264;SDS011;24062;47.480;8.768;2022-08-30T01:19:56;8.23;;;7.63;;
38264;SDS011;24062;47.480;8.768;2022-08-30T01:22:27;13.73;;;8.33;;
38264;SDS011;24062;47.480;8.768;2022-08-30T01:25:00;9.17;;;8.20;;
38264;SDS011;24062;47.480;8.768;2022-08-30T01:27:28;9.60;;;8.80;;
38264;SDS011;24062;47.480;8.768;2022-08-30T01:29:56;10.23;;;9.30;;
38264;SDS011;24062;47.480;8.768;2022-08-30T01:32:25;10.57;;;9.60;;
38264;SDS011;24062;47.480;8.768;2022-08-30T01:34:54;10.90;;;9.00;;
38264;SDS011;24062;47.480;8.768;2022-08-30T01:37:22;13.20;;;8.30;;
38264;SDS011;24062;47.480;8.768;2022-08-30T01:39:52;10.73;;;9.63;;
38264;SDS011;24062;47.480;8.768;2022-08-30T01:42:22;15.83;;;8.80;;
38264;SDS011;24062;47.480;8.768;2022-08-30T01:44:49;9.87;;;8.87;;
38264;SDS011;24062;47.480;8.768;2022-08-30T01:47:16;9.87;;;8.87;;
38264;SDS011;24062;47.480;8.768;2022-08-30T01:49:43;10.80;;;9.70;;
38264;SDS011;24062;47.480;8.768;2022-08-30T01:52:11;10.90;;;9.00;;
38264;SDS011;24062;47.480;8.768;2022-08-30T01:54:38;14.60;;;10.60;;
38264;SDS011;24062;47.480;8.768;2022-08-30T01:57:07;10.90;;;9.90;;
38264;SDS011;24062;47.480;8.768;2022-08-30T01:59:39;13.37;;;10.40;;
38264;SDS011;24062;47.480;8.768;2022-08-30T02:02:12;10.67;;;9.20;;
38264;SDS011;24062;47.480;8.768;2022-08-30T02:04:40;11.67;;;10.10;;
38264;SDS011;24062;47.480;8.768;2022-08-30T02:07:07;10.60;;;9.57;;
38264;SDS011;24062;47.480;8.768;2022-08-30T02:09:34;10.70;;;9.70;;
38264;SDS011;24062;47.480;8.768;2022-08-30T02:12:02;10.47;;;9.40;;
38264;SDS011;24062;47.480;8.768;2022-08-30T02:14:30;11.50;;;10.33;;
38264;SDS011;24062;47.480;8.768;2022-08-30T02:16:58;10.20;;;8.80;;
38264;SDS011;24062;47.480;8.768;2022-08-30T02:19:26;9.67;;;8.77;;
38264;SDS011;24062;47.480;8.768;2022-08-30T02:21:53;18.03;;;9.23;;
38264;SDS011;24062;47.480;8.768;2022-08-30T02:24:20;12.10;;;9.07;;
38264;SDS011;24062;47.480;8.768;2022-08-30T02:26:47;11.37;;;10.00;;
38264;SDS011;24062;47.480;8.768;2022-08-30T02:29:16;10.83;;;9.70;;
38264;SDS011;24062;47.480;8.768;2022-08-30T02:31:43;10.00;;;9.10;;
38264;SDS011;24062;47.480;8.768;2022-08-30T02:34:11;11.53;;;9.63;;
38264;SDS011;24062;47.480;8.768;2022-08-30T02:36:39;11.33;;;8.97;;
38264;SDS011;24062;47.480;8.768;2022-08-30T02:39:06;12.60;;;9.50;;
38264;SDS011;24062;47.480;8.768;2022-08-30T02:41:33;11.23;;;10.13;;
38264;SDS011;24062;47.480;8.768;2022-08-30T02:44:00;12.80;;;11.20;;
38264;SDS011;24062;47.480;8.768;2022-08-30T02:46:27;12.30;;;11.03;;
38264;SDS011;24062;47.480;8.768;2022-08-30T02:48:54;12.90;;;11.60;;
38264;SDS011;24062;47.480;8.768;2022-08-30T02:51:22;21.03;;;11.93;;
38264;SDS011;24062;47.480;8.768;2022-08-30T02:53:50;14.07;;;12.40;;
38264;SDS011;24062;47.480;8.768;2022-08-30T02:56:17;11.50;;;10.30;;
38264;SDS011;24062;47.480;8.768;2022-08-30T02:58:44;13.37;;;11.10;;
38264;SDS011;24062;47.480;8.768;2022-08-30T03:01:13;14.33;;;12.87;;
38264;SDS011;24062;47.480;8.768;2022-08-30T03:03:41;12.87;;;11.30;;
38264;SDS011;24062;47.480;8.768;2022-08-30T03:06:09;12.73;;;11.40;;
38264;SDS011;24062;47.480;8.768;2022-08-30T03:08:37;16.53;;;11.57;;
38264;SDS011;24062;47.480;8.768;2022-08-30T03:11:05;13.57;;;10.57;;
38264;SDS011;24062;47.480;8.768;2022-08-30T03:13:32;11.00;;;10.00;;
38264;SDS011;24062;47.480;8.768;2022-08-30T03:15:59;15.83;;;11.30;;
38264;SDS011;24062;47.480;8.768;2022-08-30T03:18:26;18.77;;;11.53;;
38264;SDS011;24062;47.480;8.768;2022-08-30T03:20:53;10.40;;;9.40;;
38264;SDS011;24062;47.480;8.768;2022-08-30T03:23:20;11.43;;;10.33;;
38264;SDS011;24062;47.480;8.768;2022-08-30T03:25:49;11.87;;;9.50;;
38264;SDS011;24062;47.480;8.768;2022-08-30T03:28:16;10.27;;;9.27;;
38264;SDS011;24062;47.480;8.768;2022-08-30T03:30:42;19.77;;;10.33;;
38264;SDS011;24062;47.480;8.768;2022-08-30T03:33:09;11.77;;;10.47;;
38264;SDS011;24062;47.480;8.768;2022-08-30T03:35:36;12.20;;;10.90;;
38264;SDS011;24062;47.480;8.768;2022-08-30T03:38:03;10.30;;;9.13;;
38264;SDS011;24062;47.480;8.768;2022-08-30T03:40:30;11.37;;;10.27;;
38264;SDS011;24062;47.480;8.768;2022-08-30T03:42:58;12.33;;;10.27;;
38264;SDS011;24062;47.480;8.768;2022-08-30T03:45:25;10.93;;;9.73;;
38264;SDS011;24062;47.480;8.768;2022-08-30T03:47:52;11.70;;;10.33;;
38264;SDS011;24062;47.480;8.768;2022-08-30T03:50:19;16.23;;;10.60;;
38264;SDS011;24062;47.480;8.768;2022-08-30T03:52:46;15.67;;;10.50;;
38264;SDS011;24062;47.480;8.768;2022-08-30T03:55:13;18.13;;;10.33;;
38264;SDS011;24062;47.480;8.768;2022-08-30T03:57:40;10.47;;;9.43;;
38264;SDS011;24062;47.480;8.768;2022-08-30T04:00:10;13.83;;;9.80;;
38264;SDS011;24062;47.480;8.768;2022-08-30T04:02:38;20.60;;;11.83;;
38264;SDS011;24062;47.480;8.768;2022-08-30T04:05:06;10.93;;;9.63;;
38264;SDS011;24062;47.480;8.768;2022-08-30T04:07:33;11.97;;;10.00;;
38264;SDS011;24062;47.480;8.768;2022-08-30T04:10:01;11.93;;;9.93;;
38264;SDS011;24062;47.480;8.768;2022-08-30T04:12:28;15.40;;;10.60;;
38264;SDS011;24062;47.480;8.768;2022-08-30T04:14:55;12.07;;;10.30;;
38264;SDS011;24062;47.480;8.768;2022-08-30T04:17:24;11.67;;;10.43;;
38264;SDS011;24062;47.480;8.768;2022-08-30T04:19:51;17.50;;;10.77;;
38264;SDS011;24062;47.480;8.768;2022-08-30T04:22:18;10.70;;;9.60;;
38264;SDS011;24062;47.480;8.768;2022-08-30T04:24:46;10.60;;;9.60;;
38264;SDS011;24062;47.480;8.768;2022-08-30T04:27:13;14.43;;;9.80;;
38264;SDS011;24062;47.480;8.768;2022-08-30T04:29:39;10.73;;;9.60;;
38264;SDS011;24062;47.480;8.768;2022-08-30T04:32:07;14.93;;;8.80;;
38264;SDS011;24062;47.480;8.768;2022-08-30T04:34:36;12.00;;;10.50;;
38264;SDS011;24062;47.480;8.768;2022-08-30T04:37:03;11.90;;;10.70;;
38264;SDS011;24062;47.480;8.768;2022-08-30T04:39:30;13.20;;;10.17;;
38264;SDS011;24062;47.480;8.768;2022-08-30T04:41:56;11.70;;;9.07;;
38264;SDS011;24062;47.480;8.768;2022-08-30T04:44:23;11.63;;;10.43;;
38264;SDS011;24062;47.480;8.768;2022-08-30T04:46:51;13.80;;;11.10;;
38264;SDS011;24062;47.480;8.768;2022-08-30T04:49:18;11.27;;;10.33;;
38264;SDS011;24062;47.480;8.768;2022-08-30T04:51:47;12.30;;;11.07;;
38264;SDS011;24062;47.480;8.768;2022-08-30T04:54:14;12.00;;;10.40;;
38264;SDS011;24062;47.480;8.768;2022-08-30T04:56:40;11.13;;;10.03;;
38264;SDS011;24062;47.480;8.768;2022-08-30T04:59:07;13.47;;;11.63;;
38264;SDS011;24062;47.480;8.768;2022-08-30T05:01:35;17.33;;;11.17;;
38264;SDS011;24062;47.480;8.768;2022-08-30T05:04:02;12.50;;;10.73;;
38264;SDS011;24062;47.480;8.768;2022-08-30T05:06:31;17.57;;;11.37;;
38264;SDS011;24062;47.480;8.768;2022-08-30T05:08:59;11.27;;;10.17;;
38264;SDS011;24062;47.480;8.768;2022-08-30T05:11:26;11.23;;;10.03;;
38264;SDS011;24062;47.480;8.768;2022-08-30T05:13:53;11.03;;;10.00;;
38264;SDS011;24062;47.480;8.768;2022-08-30T05:16:20;11.30;;;10.10;;
38264;SDS011;24062;47.480;8.768;2022-08-30T05:18:48;9.80;;;8.93;;
38264;SDS011;24062;47.480;8.768;2022-08-30T05:21:16;9.97;;;8.97;;
38264;SDS011;24062;47.480;8.768;2022-08-30T05:23:45;13.00;;;10.37;;
38264;SDS011;24062;47.480;8.768;2022-08-30T05:26:15;9.90;;;9.00;;
38264;SDS011;24062;47.480;8.768;2022-08-30T05:28:44;12.53;;;9.57;;
38264;SDS011;24062;47.480;8.768;2022-08-30T05:31:12;14.60;;;10.57;;
38264;SDS011;24062;47.480;8.768;2022-08-30T05:33:41;12.20;;;10.23;;
38264;SDS011;24062;47.480;8.768;2022-08-30T05:36:09;12.00;;;9.27;;
38264;SDS011;24062;47.480;8.768;2022-08-30T05:38:37;11.20;;;8.77;;
38264;SDS011;24062;47.480;8.768;2022-08-30T05:41:04;10.83;;;9.30;;
38264;SDS011;24062;47.480;8.768;2022-08-30T05:43:33;9.77;;;8.87;;
38264;SDS011;24062;47.480;8.768;2022-08-30T05:46:00;10.60;;;8.57;;
38264;SDS011;24062;47.480;8.768;2022-08-30T05:48:29;10.43;;;9.43;;
38264;SDS011;24062;47.480;8.768;2022-08-30T05:51:04;15.90;;;8.63;;
38264;SDS011;24062;47.480;8.768;2022-08-30T05:53:32;10.27;;;9.00;;
38264;SDS011;24062;47.480;8.768;2022-08-30T05:56:00;12.13;;;8.97;;
38264;SDS011;24062;47.480;8.768;2022-08-30T05:58:28;9.60;;;8.70;;
38264;SDS011;24062;47.480;8.768;2022-08-30T06:00:58;8.83;;;8.03;;
38264;SDS011;24062;47.480;8.768;2022-08-30T06:03:25;9.90;;;7.63;;
38264;SDS011;24062;47.480;8.768;2022-08-30T06:05:52;8.00;;;7.37;;
38264;SDS011;24062;47.480;8.768;2022-08-30T06:08:19;10.43;;;8.00;;
38264;SDS011;24062;47.480;8.768;2022-08-30T06:10:46;8.17;;;7.40;;
38264;SDS011;24062;47.480;8.768;2022-08-30T06:13:13;9.90;;;8.10;;
38264;SDS011;24062;47.480;8.768;2022-08-30T06:15:41;8.73;;;7.83;;
38264;SDS011;24062;47.480;8.768;2022-08-30T06:18:10;8.63;;;7.93;;
38264;SDS011;24062;47.480;8.768;2022-08-30T06:20:38;9.30;;;8.60;;
38264;SDS011;24062;47.480;8.768;2022-08-30T06:23:06;8.83;;;8.03;;
38264;SDS011;24062;47.480;8.768;2022-08-30T06:25:34;11.67;;;9.13;;
38264;SDS011;24062;47.480;8.768;2022-08-30T06:28:02;10.37;;;9.10;;
38264;SDS011;24062;47.480;8.768;2022-08-30T06:30:30;15.93;;;8.40;;
38264;SDS011;24062;47.480;8.768;2022-08-30T06:32:57;14.33;;;8.90;;
38264;SDS011;24062;47.480;8.768;2022-08-30T06:35:25;9.23;;;8.43;;
38264;SDS011;24062;47.480;8.768;2022-08-30T06:37:53;9.27;;;8.20;;
38264;SDS011;24062;47.480;8.768;2022-08-30T06:40:20;9.50;;;8.60;;
38264;SDS011;24062;47.480;8.768;2022-08-30T06:42:47;10.23;;;7.93;;
38264;SDS011;24062;47.480;8.768;2022-08-30T06:45:14;9.40;;;8.40;;
38264;SDS011;24062;47.480;8.768;2022-08-30T06:47:41;9.07;;;8.07;;
38264;SDS011;24062;47.480;8.768;2022-08-30T06:50:09;9.30;;;8.50;;
38264;SDS011;24062;47.480;8.768;2022-08-30T06:52:39;8.90;;;7.97;;
38264;SDS011;24062;47.480;8.768;2022-08-30T06:55:06;9.20;;;8.40;;
38264;SDS011;24062;47.480;8.768;2022-08-30T06:57:34;8.20;;;7.27;;
38264;SDS011;24062;47.480;8.768;2022-08-30T07:00:03;9.77;;;8.77;;
38264;SDS011;24062;47.480;8.768;2022-08-30T07:02:31;8.20;;;7.50;;
38264;SDS011;24062;47.480;8.768;2022-08-30T07:04:58;9.43;;;8.63;;
38264;SDS011;24062;47.480;8.768;2022-08-30T07:07:26;8.57;;;7.77;;
38264;SDS011;24062;47.480;8.768;2022-08-30T07:09:54;9.87;;;7.70;;
38264;SDS011;24062;47.480;8.768;2022-08-30T07:12:21;8.63;;;7.97;;
38264;SDS011;24062;47.480;8.768;2022-08-30T07:14:48;9.37;;;8.40;;
38264;SDS011;24062;47.480;8.768;2022-08-30T07:17:15;8.40;;;7.60;;
38264;SDS011;24062;47.480;8.768;2022-08-30T07:19:59;9.73;;;8.50;;
38264;SDS011;24062;47.480;8.768;2022-08-30T07:22:26;12.07;;;7.93;;
38264;SDS011;24062;47.480;8.768;2022-08-30T07:24:55;8.10;;;7.50;;
38264;SDS011;24062;47.480;8.768;2022-08-30T07:27:21;8.80;;;8.00;;
38264;SDS011;24062;47.480;8.768;2022-08-30T07:29:48;8.80;;;8.00;;
38264;SDS011;24062;47.480;8.768;2022-08-30T07:32:15;10.80;;;8.80;;
38264;SDS011;24062;47.480;8.768;2022-08-30T07:34:42;9.40;;;8.40;;
38264;SDS011;24062;47.480;8.768;2022-08-30T07:37:09;7.80;;;7.10;;
38264;SDS011;24062;47.480;8.768;2022-08-30T07:39:36;9.27;;;8.40;;
38264;SDS011;24062;47.480;8.768;2022-08-30T07:42:05;9.07;;;8.20;;
38264;SDS011;24062;47.480;8.768;2022-08-30T07:44:32;12.23;;;9.47;;
38264;SDS011;24062;47.480;8.768;2022-08-30T07:46:58;9.37;;;8.40;;
38264;SDS011;24062;47.480;8.768;2022-08-30T07:49:25;11.73;;;8.50;;
38264;SDS011;24062;47.480;8.768;2022-08-30T07:51:52;9.97;;;8.73;;
38264;SDS011;24062;47.480;8.768;2022-08-30T07:54:19;9.83;;;8.93;;
38264;SDS011;24062;47.480;8.768;2022-08-30T07:56:46;9.10;;;8.40;;
38264;SDS011;24062;47.480;8.768;2022-08-30T07:59:15;9.77;;;8.90;;
38264;SDS011;24062;47.480;8.768;2022-08-30T08:01:42;9.67;;;8.77;;
38264;SDS011;24062;47.480;8.768;2022-08-30T08:04:08;9.93;;;8.93;;
38264;SDS011;24062;47.480;8.768;2022-08-30T08:06:36;9.40;;;8.50;;
38264;SDS011;24062;47.480;8.768;2022-08-30T08:09:04;9.40;;;8.50;;
38264;SDS011;24062;47.480;8.768;2022-08-30T08:11:31;9.90;;;8.67;;
38264;SDS011;24062;47.480;8.768;2022-08-30T08:13:59;9.83;;;8.63;;
38264;SDS011;24062;47.480;8.768;2022-08-30T08:16:29;11.10;;;9.90;;
38264;SDS011;24062;47.480;8.768;2022-08-30T08:18:59;11.47;;;8.77;;
38264;SDS011;24062;47.480;8.768;2022-08-30T08:21:27;9.20;;;8.40;;
38264;SDS011;24062;47.480;8.768;2022-08-30T08:23:54;12.17;;;9.97;;
38264;SDS011;24062;47.480;8.768;2022-08-30T08:26:21;10.77;;;9.67;;
38264;SDS011;24062;47.480;8.768;2022-08-30T08:28:48;11.00;;;9.57;;
38264;SDS011;24062;47.480;8.768;2022-08-30T08:31:16;10.23;;;9.43;;
38264;SDS011;24062;47.480;8.768;2022-08-30T08:33:45;9.20;;;8.50;;
38264;SDS011;24062;47.480;8.768;2022-08-30T08:36:13;11.97;;;9.17;;
38264;SDS011;24062;47.480;8.768;2022-08-30T08:38:40;10.53;;;8.90;;
38264;SDS011;24062;47.480;8.768;2022-08-30T08:41:08;9.60;;;8.80;;
38264;SDS011;24062;47.480;8.768;2022-08-30T08:43:41;10.37;;;9.47;;
38264;SDS011;24062;47.480;8.768;2022-08-30T08:46:09;10.27;;;9.27;;
38264;SDS011;24062;47.480;8.768;2022-08-30T08:48:42;9.67;;;8.63;;
38264;SDS011;24062;47.480;8.768;2022-08-30T08:51:16;10.73;;;9.77;;
38264;SDS011;24062;47.480;8.768;2022-08-30T08:54:04;11.53;;;10.53;;
38264;SDS011;24062;47.480;8.768;2022-08-30T08:56:35;13.90;;;10.13;;
38264;SDS011;24062;47.480;8.768;2022-08-30T08:59:02;11.80;;;10.17;;
38264;SDS011;24062;47.480;8.768;2022-08-30T09:01:32;13.37;;;9.97;;
38264;SDS011;24062;47.480;8.768;2022-08-30T09:04:00;12.80;;;11.57;;
38264;SDS011;24062;47.480;8.768;2022-08-30T09:06:39;11.57;;;9.33;;
38264;SDS011;24062;47.480;8.768;2022-08-30T09:09:10;10.73;;;9.73;;
38264;SDS011;24062;47.480;8.768;2022-08-30T09:11:38;11.27;;;10.27;;
38264;SDS011;24062;47.480;8.768;2022-08-30T09:14:08;10.83;;;9.27;;
38264;SDS011;24062;47.480;8.768;2022-08-30T09:16:48;9.97;;;9.07;;
38264;SDS011;24062;47.480;8.768;2022-08-30T09:19:26;11.57;;;10.40;;
38264;SDS011;24062;47.480;8.768;2022-08-30T09:22:00;9.20;;;8.30;;
38264;SDS011;24062;47.480;8.768;2022-08-30T09:24:35;13.33;;;9.87;;
38264;SDS011;24062;47.480;8.768;2022-08-30T09:27:17;12.40;;;10.83;;
38264;SDS011;24062;47.480;8.768;2022-08-30T09:29:57;11.00;;;10.00;;
38264;SDS011;24062;47.480;8.768;2022-08-30T09:32:27;10.00;;;9.10;;
38264;SDS011;24062;47.480;8.768;2022-08-30T09:34:56;12.77;;;9.77;;
38264;SDS011;24062;47.480;8.768;2022-08-30T09:37:26;10.80;;;9.70;;
38264;SDS011;24062;47.480;8.768;2022-08-30T09:39:56;11.20;;;10.30;;
38264;SDS011;24062;47.480;8.768;2022-08-30T09:42:25;11.67;;;10.57;;
38264;SDS011;24062;47.480;8.768;2022-08-30T09:44:54;11.53;;;10.57;;
38264;SDS011;24062;47.480;8.768;2022-08-30T09:47:34;12.00;;;10.77;;
38264;SDS011;24062;47.480;8.768;2022-08-30T09:50:04;11.63;;;10.53;;
38264;SDS011;24062;47.480;8.768;2022-08-30T09:52:36;12.93;;;11.70;;
38264;SDS011;24062;47.480;8.768;2022-08-30T09:55:19;12.43;;;11.23;;
38264;SDS011;24062;47.480;8.768;2022-08-30T09:58:16;10.90;;;10.00;;
38264;SDS011;24062;47.480;8.768;2022-08-30T10:00:55;10.57;;;8.90;;
38264;SDS011;24062;47.480;8.768;2022-08-30T10:03:27;11.03;;;9.97;;
38264;SDS011;24062;47.480;8.768;2022-08-30T10:06:01;10.17;;;9.17;;
38264;SDS011;24062;47.480;8.768;2022-08-30T10:08:39;10.77;;;9.70;;
38264;SDS011;24062;47.480;8.768;2022-08-30T10:11:18;10.87;;;9.80;;
38264;SDS011;24062;47.480;8.768;2022-08-30T10:14:01;10.63;;;8.80;;
38264;SDS011;24062;47.480;8.768;2022-08-30T10:16:46;11.10;;;8.60;;
38264;SDS011;24062;47.480;8.768;2022-08-30T10:19:24;8.53;;;7.73;;
38264;SDS011;24062;47.480;8.768;2022-08-30T10:22:01;9.53;;;8.37;;
38264;SDS011;24062;47.480;8.768;2022-08-30T10:24:34;9.30;;;7.70;;
38264;SDS011;24062;47.480;8.768;2022-08-30T10:27:05;7.90;;;7.20;;
38264;SDS011;24062;47.480;8.768;2022-08-30T10:29:38;9.03;;;6.97;;
38264;SDS011;24062;47.480;8.768;2022-08-30T10:32:11;11.13;;;8.17;;
38264;SDS011;24062;47.480;8.768;2022-08-30T10:34:45;14.67;;;7.30;;
38264;SDS011;24062;47.480;8.768;2022-08-30T10:37:18;8.73;;;8.03;;
38264;SDS011;24062;47.480;8.768;2022-08-30T10:39:50;8.60;;;7.80;;
38264;SDS011;24062;47.480;8.768;2022-08-30T10:42:20;8.90;;;8.00;;
38264;SDS011;24062;47.480;8.768;2022-08-30T10:44:52;7.83;;;7.00;;
38264;SDS011;24062;47.480;8.768;2022-08-30T10:47:24;8.07;;;7.35;;
38264;SDS011;24062;47.480;8.768;2022-08-30T10:50:00;6.20;;;5.80;;
38264;SDS011;24062;47.480;8.768;2022-08-30T10:52:33;7.10;;;6.55;;
38264;SDS011;24062;47.480;8.768;2022-08-30T10:55:09;7.60;;;7.00;;
38264;SDS011;24062;47.480;8.768;2022-08-30T10:57:39;6.82;;;6.22;;
38264;SDS011;24062;47.480;8.768;2022-08-30T11:00:11;7.25;;;6.63;;
38264;SDS011;24062;47.480;8.768;2022-08-30T11:05:46;6.47;;;5.97;;
38264;SDS011;24062;47.480;8.768;2022-08-30T11:08:43;7.47;;;6.70;;
38264;SDS011;24062;47.480;8.768;2022-08-30T11:11:24;6.95;;;6.50;;
38264;SDS011;24062;47.480;8.768;2022-08-30T11:14:00;6.78;;;6.20;;
38264;SDS011;24062;47.480;8.768;2022-08-30T11:16:33;6.43;;;5.82;;
38264;SDS011;24062;47.480;8.768;2022-08-30T11:19:02;6.97;;;6.38;;
38264;SDS011;24062;47.480;8.768;2022-08-30T11:21:40;11.20;;;6.32;;
38264;SDS011;24062;47.480;8.768;2022-08-30T11:24:09;6.57;;;6.07;;
38264;SDS011;24062;47.480;8.768;2022-08-30T11:26:52;5.95;;;5.35;;
38264;SDS011;24062;47.480;8.768;2022-08-30T11:29:34;6.32;;;5.80;;
38264;SDS011;24062;47.480;8.768;2022-08-30T11:35:05;6.15;;;5.57;;
38264;SDS011;24062;47.480;8.768;2022-08-30T11:37:35;6.57;;;5.07;;
38264;SDS011;24062;47.480;8.768;2022-08-30T11:40:09;5.60;;;5.20;;
38264;SDS011;24062;47.480;8.768;2022-08-30T11:42:53;5.63;;;5.13;;
38264;SDS011;24062;47.480;8.768;2022-08-30T11:51:08;5.60;;;5.20;;
38264;SDS011;24062;47.480;8.768;2022-08-30T11:53:49;5.50;;;5.00;;
38264;SDS011;24062;47.480;8.768;2022-08-30T11:56:26;7.63;;;4.97;;
38264;SDS011;24062;47.480;8.768;2022-08-30T11:59:00;6.10;;;5.70;;
38264;SDS011;24062;47.480;8.768;2022-08-30T12:01:33;6.35;;;5.68;;
38264;SDS011;24062;47.480;8.768;2022-08-30T12:04:03;5.70;;;5.15;;
38264;SDS011;24062;47.480;8.768;2022-08-30T12:12:44;5.30;;;4.78;;
38264;SDS011;24062;47.480;8.768;2022-08-30T12:15:28;5.40;;;4.70;;
38264;SDS011;24062;47.480;8.768;2022-08-30T12:18:23;9.57;;;4.80;;
38264;SDS011;24062;47.480;8.768;2022-08-30T12:20:57;16.63;;;15.00;;
38264;SDS011;24062;47.480;8.768;2022-08-30T12:23:33;6.28;;;5.78;;
38264;SDS011;24062;47.480;8.768;2022-08-30T12:26:11;7.85;;;5.32;;
38264;SDS011;24062;47.480;8.768;2022-08-30T12:28:44;5.43;;;4.80;;
38264;SDS011;24062;47.480;8.768;2022-08-30T12:31:18;6.47;;;5.13;;
38264;SDS011;24062;47.480;8.768;2022-08-30T12:33:47;5.22;;;4.82;;
38264;SDS011;24062;47.480;8.768;2022-08-30T12:36:30;5.88;;;4.88;;
38264;SDS011;24062;47.480;8.768;2022-08-30T12:39:06;7.13;;;4.60;;
38264;SDS011;24062;47.480;8.768;2022-08-30T12:41:34;7.18;;;5.50;;
38264;SDS011;24062;47.480;8.768;2022-08-30T12:44:02;6.47;;;4.93;;
38264;SDS011;24062;47.480;8.768;2022-08-30T12:46:34;6.50;;;5.05;;
38264;SDS011;24062;47.480;8.768;2022-08-30T12:49:01;6.18;;;4.75;;
38264;SDS011;24062;47.480;8.768;2022-08-30T12:51:33;4.47;;;4.07;;
38264;SDS011;24062;47.480;8.768;2022-08-30T12:54:04;8.15;;;4.50;;
38264;SDS011;24062;47.480;8.768;2022-08-30T12:56:44;6.18;;;4.55;;
38264;SDS011;24062;47.480;8.768;2022-08-30T12:59:38;3.92;;;3.63;;
38264;SDS011;24062;47.480;8.768;2022-08-30T13:02:11;4.10;;;3.80;;
38264;SDS011;24062;47.480;8.768;2022-08-30T13:04:40;4.78;;;4.05;;
38264;SDS011;24062;47.480;8.768;2022-08-30T13:07:07;5.57;;;3.97;;
38264;SDS011;24062;47.480;8.768;2022-08-30T13:09:35;3.97;;;3.60;;
38264;SDS011;24062;47.480;8.768;2022-08-30T13:12:04;3.67;;;3.35;;
38264;SDS011;24062;47.480;8.768;2022-08-30T13:14:34;3.92;;;3.63;;
38264;SDS011;24062;47.480;8.768;2022-08-30T13:17:07;4.40;;;3.95;;
38264;SDS011;24062;47.480;8.768;2022-08-30T13:19:54;3.67;;;3.38;;
38264;SDS011;24062;47.480;8.768;2022-08-30T13:22:24;4.72;;;3.83;;
38264;SDS011;24062;47.480;8.768;2022-08-30T13:24:52;4.13;;;3.83;;
38264;SDS011;24062;47.480;8.768;2022-08-30T13:27:19;3.58;;;3.28;;
38264;SDS011;24062;47.480;8.768;2022-08-30T13:29:46;3.65;;;3.35;;
38264;SDS011;24062;47.480;8.768;2022-08-30T13:32:15;4.75;;;4.35;;
38264;SDS011;24062;47.480;8.768;2022-08-30T13:34:42;4.15;;;3.75;;
38264;SDS011;24062;47.480;8.768;2022-08-30T13:37:11;4.07;;;3.78;;
38264;SDS011;24062;47.480;8.768;2022-08-30T13:39:41;3.75;;;3.40;;
38264;SDS011;24062;47.480;8.768;2022-08-30T13:42:08;3.58;;;3.28;;
38264;SDS011;24062;47.480;8.768;2022-08-30T13:44:35;4.05;;;3.40;;
38264;SDS011;24062;47.480;8.768;2022-08-30T13:47:02;3.67;;;3.38;;
38264;SDS011;24062;47.480;8.768;2022-08-30T13:49:32;2.80;;;2.60;;
38264;SDS011;24062;47.480;8.768;2022-08-30T13:52:00;3.33;;;2.92;;
38264;SDS011;24062;47.480;8.768;2022-08-30T13:54:28;3.28;;;3.08;;
38264;SDS011;24062;47.480;8.768;2022-08-30T13:56:55;4.43;;;3.22;;
38264;SDS011;24062;47.480;8.768;2022-08-30T13:59:23;5.25;;;2.95;;
38264;SDS011;24062;47.480;8.768;2022-08-30T14:01:51;3.45;;;2.63;;
38264;SDS011;24062;47.480;8.768;2022-08-30T14:04:19;3.28;;;2.97;;
38264;SDS011;24062;47.480;8.768;2022-08-30T14:06:48;3.88;;;3.10;;
38264;SDS011;24062;47.480;8.768;2022-08-30T14:09:15;6.07;;;3.03;;
38264;SDS011;24062;47.480;8.768;2022-08-30T14:11:42;3.78;;;2.80;;
38264;SDS011;24062;47.480;8.768;2022-08-30T14:14:09;4.45;;;2.45;;
38264;SDS011;24062;47.480;8.768;2022-08-30T14:16:37;3.33;;;3.03;;
38264;SDS011;24062;47.480;8.768;2022-08-30T14:19:06;3.47;;;2.63;;
38264;SDS011;24062;47.480;8.768;2022-08-30T14:21:33;2.90;;;2.70;;
38264;SDS011;24062;47.480;8.768;2022-08-30T14:24:02;3.33;;;3.03;;
38264;SDS011;24062;47.480;8.768;2022-08-30T14:26:33;3.25;;;2.85;;
38264;SDS011;24062;47.480;8.768;2022-08-30T14:29:03;3.58;;;3.22;;
38264;SDS011;24062;47.480;8.768;2022-08-30T14:31:32;3.53;;;3.22;;
38264;SDS011;24062;47.480;8.768;2022-08-30T14:33:59;5.30;;;3.13;;
38264;SDS011;24062;47.480;8.768;2022-08-30T14:36:27;3.55;;;3.25;;
38264;SDS011;24062;47.480;8.768;2022-08-30T14:38:54;3.03;;;2.70;;
38264;SDS011;24062;47.480;8.768;2022-08-30T14:41:22;3.03;;;2.83;;
38264;SDS011;24062;47.480;8.768;2022-08-30T14:43:49;6.82;;;2.92;;
38264;SDS011;24062;47.480;8.768;2022-08-30T14:46:16;3.90;;;3.05;;
38264;SDS011;24062;47.480;8.768;2022-08-30T14:48:43;3.17;;;2.97;;
38264;SDS011;24062;47.480;8.768;2022-08-30T14:51:11;5.10;;;3.15;;
38264;SDS011;24062;47.480;8.768;2022-08-30T14:53:39;3.13;;;2.92;;
38264;SDS011;24062;47.480;8.768;2022-08-30T14:56:07;4.15;;;2.75;;
38264;SDS011;24062;47.480;8.768;2022-08-30T14:58:36;4.80;;;2.60;;
38264;SDS011;24062;47.480;8.768;2022-08-30T15:01:05;4.20;;;2.97;;
38264;SDS011;24062;47.480;8.768;2022-08-30T15:03:33;6.70;;;3.33;;
38264;SDS011;24062;47.480;8.768;2022-08-30T15:06:00;3.53;;;3.17;;
38264;SDS011;24062;47.480;8.768;2022-08-30T15:08:28;5.63;;;3.38;;
38264;SDS011;24062;47.480;8.768;2022-08-30T15:10:54;4.90;;;3.55;;